Time;durP1;ratioP1;P1;durP2;ratioP2;P2;SDS_P1;SDS_P2;PMS_P1;PMS_P2;Temp;Humidity;BMP_temperature;BMP_pressure;BME280_temperature;BME280_humidity;BME280_pressure;Samples;Min_cycle;Max_cycle;Signal;HPM_P1;HPM_P2
2021/07/15 00:01:29;;;;;;;1.67;1.58;;;19.50;99.90;;;;;;4837098;29;20422;-77
2021/07/15 00:03:54;;;;;;;1.93;1.83;;;19.50;99.90;;;;;;4839069;29;20409;-77
2021/07/15 00:06:20;;;;;;;1.70;1.60;;;19.50;99.90;;;;;;4841445;29;20429;-77
2021/07/15 00:08:47;;;;;;;1.75;1.65;;;19.50;99.90;;;;;;4840828;29;20436;-77
2021/07/15 00:11:13;;;;;;;2.05;1.95;;;19.50;99.90;;;;;;4855844;29;20430;-77
2021/07/15 00:13:38;;;;;;;1.80;1.70;;;19.50;99.90;;;;;;4862707;29;20521;-76
2021/07/15 00:16:07;;;;;;;2.35;2.15;;;19.40;99.90;;;;;;4840269;29;20466;-77
2021/07/15 00:18:35;;;;;;;2.00;1.90;;;19.40;99.90;;;;;;4832809;29;20411;-77
2021/07/15 00:21:01;;;;;;;1.93;1.77;;;19.30;99.90;;;;;;4833091;29;20416;-77
2021/07/15 00:23:27;;;;;;;2.28;1.85;;;19.40;99.90;;;;;;4856102;29;20419;-77
2021/07/15 00:25:53;;;;;;;1.90;1.80;;;19.40;99.90;;;;;;4863644;29;20979;-77
2021/07/15 00:28:19;;;;;;;2.10;1.95;;;19.50;99.90;;;;;;4855089;29;20426;-77
2021/07/15 00:30:45;;;;;;;2.15;1.95;;;19.40;99.90;;;;;;4834219;29;20418;-77
2021/07/15 00:33:10;;;;;;;2.10;1.90;;;19.40;99.90;;;;;;4814603;29;20439;-77
2021/07/15 00:35:36;;;;;;;2.60;2.00;;;19.40;99.90;;;;;;4844159;29;20416;-77
2021/07/15 00:38:02;;;;;;;1.90;1.80;;;19.50;99.90;;;;;;4828678;29;20490;-77
2021/07/15 00:40:28;;;;;;;1.90;1.80;;;19.50;99.90;;;;;;4854883;29;20767;-77
2021/07/15 00:42:54;;;;;;;1.63;1.53;;;19.50;99.90;;;;;;4855581;29;20409;-77
2021/07/15 00:45:19;;;;;;;1.60;1.50;;;19.50;99.90;;;;;;4845592;29;20414;-77
2021/07/15 00:47:46;;;;;;;1.60;1.50;;;19.60;99.90;;;;;;4856661;29;20910;-77
2021/07/15 00:50:12;;;;;;;1.90;1.80;;;19.60;99.90;;;;;;4839488;29;20422;-77
2021/07/15 00:52:38;;;;;;;1.73;1.63;;;19.60;99.90;;;;;;4823814;29;20520;-77
2021/07/15 00:55:05;;;;;;;1.73;1.63;;;19.50;99.90;;;;;;4855080;29;20410;-77
2021/07/15 00:57:30;;;;;;;1.60;1.50;;;19.50;99.90;;;;;;4821419;29;20400;-77
2021/07/15 00:59:56;;;;;;;1.60;1.50;;;19.50;99.90;;;;;;4834033;29;20410;-77
2021/07/15 01:02:22;;;;;;;1.50;1.40;;;19.40;99.90;;;;;;4853852;29;20414;-77
2021/07/15 01:04:47;;;;;;;1.87;1.77;;;19.40;99.90;;;;;;4857656;29;20412;-76
2021/07/15 01:07:13;;;;;;;1.80;1.70;;;19.40;99.90;;;;;;4845468;29;20420;-77
2021/07/15 01:09:38;;;;;;;1.80;1.70;;;19.40;99.90;;;;;;4854836;29;20894;-77
2021/07/15 01:12:32;;;;;;;1.47;1.37;;;19.40;99.90;;;;;;4855437;29;21089;-77
2021/07/15 01:15:00;;;;;;;1.60;1.50;;;19.30;99.90;;;;;;4854608;29;20410;-76
2021/07/15 01:17:28;;;;;;;1.80;1.70;;;19.30;99.90;;;;;;4853479;29;20488;-77
2021/07/15 01:20:18;;;;;;;2.00;1.90;;;19.30;99.90;;;;;;4833981;29;20445;-77
2021/07/15 01:22:48;;;;;;;1.50;1.40;;;19.30;99.90;;;;;;4824197;29;20414;-77
2021/07/15 01:25:35;;;;;;;1.65;1.55;;;19.30;99.90;;;;;;4860859;29;20434;-77
2021/07/15 01:28:36;;;;;;;1.85;1.75;;;19.40;99.90;;;;;;4854485;29;20477;-76
2021/07/15 01:31:02;;;;;;;1.70;1.60;;;19.30;99.90;;;;;;4853424;29;20422;-77
2021/07/15 01:33:28;;;;;;;2.92;2.05;;;19.20;99.90;;;;;;4838133;29;20456;-78
2021/07/15 01:36:03;;;;;;;1.70;1.60;;;19.20;99.90;;;;;;4839422;29;20465;-76
2021/07/15 01:38:35;;;;;;;1.70;1.53;;;19.20;99.90;;;;;;4852874;29;20411;-77
2021/07/15 01:41:10;;;;;;;1.50;1.50;;;19.20;99.90;;;;;;4820340;29;20461;-77
2021/07/15 01:43:40;;;;;;;1.90;1.80;;;19.30;99.90;;;;;;4838118;29;20414;-77
2021/07/15 01:46:06;;;;;;;1.80;1.70;;;19.30;99.90;;;;;;4823556;29;20417;-77
2021/07/15 01:48:31;;;;;;;1.90;1.80;;;19.30;99.90;;;;;;4843051;29;20465;-77
2021/07/15 01:50:57;;;;;;;2.13;1.97;;;19.30;99.90;;;;;;4853921;29;20463;-77
2021/07/15 01:53:23;;;;;;;2.35;2.17;;;19.30;99.90;;;;;;4853832;29;20422;-77
2021/07/15 01:55:49;;;;;;;2.03;1.92;;;19.30;99.90;;;;;;4838964;29;20422;-77
2021/07/15 01:58:15;;;;;;;1.90;1.80;;;19.30;99.90;;;;;;4837615;29;20430;-77
2021/07/15 02:00:40;;;;;;;1.83;1.73;;;19.40;99.90;;;;;;4857128;29;20422;-76
2021/07/15 02:03:07;;;;;;;1.80;1.70;;;19.40;99.90;;;;;;4810531;29;20451;-78
2021/07/15 02:05:32;;;;;;;2.57;2.37;;;19.30;99.90;;;;;;4829064;29;20416;-77
2021/07/15 02:07:59;;;;;;;2.38;2.17;;;19.40;99.90;;;;;;4826737;29;20842;-77
2021/07/15 02:10:25;;;;;;;3.40;1.90;;;19.30;99.90;;;;;;4820177;29;20418;-77
2021/07/15 02:12:50;;;;;;;4.60;2.27;;;19.30;99.90;;;;;;4854397;29;20447;-76
2021/07/15 02:15:16;;;;;;;2.10;2.00;;;19.40;99.90;;;;;;4834703;29;20416;-77
2021/07/15 02:17:43;;;;;;;2.27;2.10;;;19.40;99.90;;;;;;4835426;29;20427;-77
2021/07/15 02:20:10;;;;;;;2.20;2.10;;;19.40;99.90;;;;;;4838002;29;20424;-77
2021/07/15 02:22:36;;;;;;;2.55;2.35;;;19.40;99.90;;;;;;4835567;29;20416;-77
2021/07/15 02:25:04;;;;;;;2.57;2.37;;;19.50;99.90;;;;;;4839475;29;20421;-77
2021/07/15 02:27:29;;;;;;;2.15;1.95;;;19.50;99.90;;;;;;4841673;29;20418;-77
2021/07/15 02:29:55;;;;;;;2.50;2.30;;;19.50;99.90;;;;;;4811945;29;20462;-77
2021/07/15 02:32:21;;;;;;;2.07;1.97;;;19.50;99.90;;;;;;4853639;29;20922;-78
2021/07/15 02:34:54;;;;;;;2.35;2.20;;;19.40;99.90;;;;;;4838487;29;20934;-78
2021/07/15 02:37:26;;;;;;;2.80;2.60;;;19.40;99.90;;;;;;4835642;29;20962;-78
2021/07/15 02:39:51;;;;;;;2.28;2.17;;;19.40;99.90;;;;;;4839354;29;20474;-77
2021/07/15 02:42:17;;;;;;;2.30;2.20;;;19.30;99.90;;;;;;4834864;29;20404;-77
2021/07/15 02:44:43;;;;;;;6.25;2.40;;;19.30;99.90;;;;;;4839686;29;20410;-77
2021/07/15 02:47:09;;;;;;;2.40;2.30;;;19.30;99.90;;;;;;4833242;29;20411;-78
2021/07/15 02:49:39;;;;;;;2.75;2.55;;;19.30;99.90;;;;;;4840667;29;20410;-77
2021/07/15 02:52:05;;;;;;;2.60;2.38;;;19.40;99.90;;;;;;4837603;29;20406;-77
2021/07/15 02:54:31;;;;;;;2.33;2.22;;;19.40;99.90;;;;;;4822800;29;20446;-76
2021/07/15 02:57:03;;;;;;;2.83;2.63;;;19.50;99.90;;;;;;4841632;29;20428;-78
2021/07/15 02:59:41;;;;;;;3.03;2.55;;;19.50;99.90;;;;;;4837718;29;20425;-78
2021/07/15 03:02:09;;;;;;;2.47;2.38;;;19.50;99.90;;;;;;4836520;29;20474;-79
2021/07/15 03:05:04;;;;;;;2.73;2.53;;;19.50;99.90;;;;;;4853603;29;20906;-78
2021/07/15 03:07:32;;;;;;;2.53;2.33;;;19.50;99.90;;;;;;4833252;29;20440;-78
2021/07/15 03:09:57;;;;;;;2.40;2.28;;;19.50;99.90;;;;;;4835564;29;20946;-78
2021/07/15 03:12:23;;;;;;;2.22;2.13;;;19.50;99.90;;;;;;4842102;29;20428;-79
2021/07/15 03:14:52;;;;;;;2.80;2.60;;;19.50;99.90;;;;;;4815993;29;20412;-79
2021/07/15 03:17:25;;;;;;;2.55;2.35;;;19.40;99.90;;;;;;4836968;29;20422;-78
2021/07/15 03:19:51;;;;;;;2.70;2.50;;;19.40;99.90;;;;;;4838214;29;20431;-78
2021/07/15 03:22:17;;;;;;;2.58;2.38;;;19.40;99.90;;;;;;4837057;29;20414;-78
2021/07/15 03:24:48;;;;;;;2.40;2.30;;;19.30;99.90;;;;;;4834789;29;20410;-78
2021/07/15 03:27:14;;;;;;;2.47;2.28;;;19.30;99.90;;;;;;4837083;29;20408;-78
2021/07/15 03:29:41;;;;;;;2.90;2.70;;;19.40;99.90;;;;;;4832281;29;20927;-79
2021/07/15 03:32:07;;;;;;;2.92;2.72;;;19.30;99.90;;;;;;4837195;29;20454;-78
2021/07/15 03:34:33;;;;;;;2.50;2.35;;;19.30;99.90;;;;;;4838588;29;20508;-79
2021/07/15 03:36:59;;;;;;;2.60;2.40;;;19.30;99.90;;;;;;4838025;29;20410;-78
2021/07/15 03:39:24;;;;;;;2.63;2.43;;;19.20;99.90;;;;;;4837088;29;20409;-78
2021/07/15 03:41:51;;;;;;;2.45;2.33;;;19.30;99.90;;;;;;4854015;29;20418;-78
2021/07/15 03:44:16;;;;;;;2.85;2.65;;;19.30;99.90;;;;;;4836316;29;20424;-78
2021/07/15 03:46:42;;;;;;;2.75;2.55;;;19.30;99.90;;;;;;4845315;29;20887;-79
2021/07/15 03:49:08;;;;;;;2.97;2.78;;;19.30;99.90;;;;;;4838350;29;21067;-79
2021/07/15 03:51:34;;;;;;;4.25;2.95;;;19.30;99.90;;;;;;4853456;29;20403;-78
2021/07/15 03:54:00;;;;;;;3.22;2.92;;;19.30;99.90;;;;;;4837435;29;20422;-79
2021/07/15 03:56:26;;;;;;;3.37;3.10;;;19.20;99.90;;;;;;4811819;29;20423;-79
2021/07/15 03:58:51;;;;;;;3.40;3.10;;;19.20;99.90;;;;;;4844471;29;20420;-79
2021/07/15 04:01:17;;;;;;;3.30;3.00;;;19.10;99.90;;;;;;4833817;29;20419;-78
2021/07/15 04:03:44;;;;;;;3.17;2.85;;;19.10;99.90;;;;;;4831259;29;20407;-78
2021/07/15 04:06:10;;;;;;;3.30;3.00;;;19.10;99.90;;;;;;4847589;29;20505;-79
2021/07/15 04:08:38;;;;;;;3.38;3.13;;;19.10;99.90;;;;;;4853698;29;20481;-79
2021/07/15 04:11:03;;;;;;;2.42;2.25;;;19.20;99.90;;;;;;4852931;29;20421;-78
2021/07/15 04:13:29;;;;;;;2.88;2.67;;;19.20;99.90;;;;;;4853782;29;20450;-78
2021/07/15 04:15:55;;;;;;;3.20;2.90;;;19.30;99.90;;;;;;4836921;29;20406;-78
2021/07/15 04:18:24;;;;;;;2.88;2.67;;;19.20;99.90;;;;;;4835328;29;20455;-79
2021/07/15 04:20:49;;;;;;;2.90;2.70;;;19.20;99.90;;;;;;4820997;29;20445;-79
2021/07/15 04:23:18;;;;;;;3.30;3.00;;;19.20;99.90;;;;;;4853472;29;20414;-79
2021/07/15 04:25:45;;;;;;;2.90;2.70;;;19.20;99.90;;;;;;4854814;29;20424;-78
2021/07/15 04:28:11;;;;;;;2.78;2.58;;;19.20;99.90;;;;;;4830912;29;20414;-79
2021/07/15 04:30:36;;;;;;;3.27;3.07;;;19.30;99.90;;;;;;4834300;29;20916;-78
2021/07/15 04:33:08;;;;;;;3.30;3.08;;;19.30;99.90;;;;;;4810717;29;20450;-78
2021/07/15 04:35:33;;;;;;;2.80;2.60;;;19.30;99.90;;;;;;4820447;29;20435;-78
2021/07/15 04:37:59;;;;;;;3.40;3.10;;;19.30;99.90;;;;;;4833007;29;20415;-77
2021/07/15 04:40:25;;;;;;;2.83;2.63;;;19.20;99.90;;;;;;4834544;29;20421;-78
2021/07/15 04:42:57;;;;;;;3.20;3.00;;;19.20;99.90;;;;;;4836318;29;21214;-78
2021/07/15 04:45:25;;;;;;;4.93;4.53;;;19.20;99.90;;;;;;4838632;29;20422;-77
2021/07/15 04:47:50;;;;;;;3.30;3.05;;;19.20;99.90;;;;;;4848301;29;20424;-77
2021/07/15 04:50:17;;;;;;;3.28;3.08;;;19.10;99.90;;;;;;4835021;29;20467;-77
2021/07/15 04:52:44;;;;;;;2.97;2.77;;;19.10;99.90;;;;;;4853319;29;20422;-76
2021/07/15 04:55:10;;;;;;;3.03;2.72;;;19.10;99.90;;;;;;4837594;29;20980;-77
2021/07/15 04:57:36;;;;;;;3.60;3.35;;;19.20;99.90;;;;;;4852851;29;20477;-76
2021/07/15 05:00:08;;;;;;;3.55;3.25;;;19.10;99.90;;;;;;4839037;29;21110;-76
2021/07/15 05:02:35;;;;;;;3.53;3.22;;;19.10;99.90;;;;;;4842914;29;20426;-77
2021/07/15 05:05:01;;;;;;;3.28;3.05;;;19.10;99.90;;;;;;4829179;29;20428;-78
2021/07/15 05:07:27;;;;;;;3.97;3.67;;;19.10;99.90;;;;;;4836153;29;20971;-77
2021/07/15 05:09:52;;;;;;;2.90;2.70;;;19.00;99.90;;;;;;4826084;29;20428;-77
2021/07/15 05:12:18;;;;;;;3.17;2.97;;;19.10;99.90;;;;;;4853147;29;20414;-77
2021/07/15 05:14:44;;;;;;;4.95;3.28;;;19.10;99.90;;;;;;4839565;29;20418;-77
2021/07/15 05:17:10;;;;;;;3.35;3.15;;;19.10;99.90;;;;;;4841302;29;20995;-77
2021/07/15 05:19:36;;;;;;;3.60;3.30;;;19.20;99.90;;;;;;4820650;29;20421;-77
2021/07/15 05:22:02;;;;;;;3.42;3.13;;;19.10;99.90;;;;;;4838424;29;20497;-77
2021/07/15 05:24:28;;;;;;;2.80;2.60;;;19.10;99.90;;;;;;4838280;29;20416;-77
2021/07/15 05:26:54;;;;;;;3.50;3.28;;;19.10;99.90;;;;;;4836939;29;20420;-77
2021/07/15 05:29:20;;;;;;;3.33;3.03;;;19.10;99.90;;;;;;4837979;29;20410;-77
2021/07/15 05:31:45;;;;;;;2.93;2.73;;;19.20;99.90;;;;;;4840606;29;21038;-77
2021/07/15 05:34:12;;;;;;;3.17;2.97;;;19.30;99.90;;;;;;4853414;29;20415;-77
2021/07/15 05:36:37;;;;;;;3.28;3.05;;;19.30;99.90;;;;;;4813423;29;20414;-77
2021/07/15 05:39:03;;;;;;;2.90;2.70;;;19.40;99.90;;;;;;4836610;29;20406;-78
2021/07/15 05:41:28;;;;;;;2.97;2.77;;;19.50;99.90;;;;;;4852924;29;20410;-77
2021/07/15 05:43:54;;;;;;;3.22;2.92;;;19.50;99.90;;;;;;4837428;29;20439;-77
2021/07/15 05:46:20;;;;;;;3.47;3.17;;;19.60;99.90;;;;;;4852380;29;20837;-76
2021/07/15 05:48:46;;;;;;;3.43;3.20;;;19.60;99.90;;;;;;4852080;29;20485;-77
2021/07/15 05:51:11;;;;;;;3.55;3.25;;;19.50;99.90;;;;;;4853436;29;20421;-77
2021/07/15 05:53:37;;;;;;;3.63;3.33;;;19.50;99.90;;;;;;4839089;29;20483;-76
2021/07/15 05:56:03;;;;;;;3.50;3.20;;;19.50;99.90;;;;;;4833718;29;20481;-76
2021/07/15 05:58:29;;;;;;;3.42;3.05;;;19.50;99.90;;;;;;4830077;29;20449;-77
2021/07/15 06:00:55;;;;;;;3.63;3.33;;;19.50;99.90;;;;;;4859251;29;20409;-77
2021/07/15 06:03:20;;;;;;;3.30;3.10;;;19.50;99.90;;;;;;4813007;29;20409;-77
2021/07/15 06:05:46;;;;;;;3.40;3.10;;;19.50;99.90;;;;;;4855014;29;20408;-77
2021/07/15 06:08:12;;;;;;;2.93;2.73;;;19.50;99.90;;;;;;4826898;29;20423;-76
2021/07/15 06:10:37;;;;;;;3.37;3.13;;;19.50;99.90;;;;;;4853323;29;20783;-77
2021/07/15 06:13:03;;;;;;;3.10;2.88;;;19.50;99.90;;;;;;4854203;29;20411;-77
2021/07/15 06:15:29;;;;;;;3.08;2.88;;;19.50;99.90;;;;;;4852241;29;20411;-77
2021/07/15 06:17:55;;;;;;;2.90;2.70;;;19.60;99.90;;;;;;4840775;29;20836;-77
2021/07/15 06:20:21;;;;;;;3.25;3.05;;;19.60;99.90;;;;;;4835417;29;20955;-77
2021/07/15 06:22:46;;;;;;;3.20;2.90;;;19.70;99.90;;;;;;4825538;29;20786;-77
2021/07/15 06:25:12;;;;;;;2.67;2.47;;;19.70;99.90;;;;;;4838088;29;20398;-76
2021/07/15 06:27:38;;;;;;;2.92;2.72;;;19.70;99.90;;;;;;4832911;29;20403;-77
2021/07/15 06:30:13;;;;;;;3.17;2.97;;;19.70;99.90;;;;;;4838407;29;20418;-76
2021/07/15 06:32:39;;;;;;;2.90;2.70;;;19.70;99.90;;;;;;4850126;29;20434;-77
2021/07/15 06:35:05;;;;;;;3.40;3.10;;;19.70;99.90;;;;;;4823174;29;20832;-77
2021/07/15 06:37:35;;;;;;;2.70;2.50;;;19.70;99.90;;;;;;4824220;29;20779;-77
2021/07/15 06:40:03;;;;;;;3.22;2.92;;;19.80;99.90;;;;;;4836991;29;20413;-77
2021/07/15 06:42:28;;;;;;;3.08;2.75;;;19.90;99.90;;;;;;4853350;29;20402;-76
2021/07/15 06:44:54;;;;;;;2.50;2.30;;;20.00;99.90;;;;;;4837126;29;20462;-77
2021/07/15 06:47:20;;;;;;;2.20;2.07;;;20.20;99.90;;;;;;4840573;29;20421;-76
2021/07/15 06:49:45;;;;;;;3.63;2.83;;;20.20;99.90;;;;;;4852851;29;20399;-77
2021/07/15 06:52:11;;;;;;;2.50;2.30;;;20.30;99.90;;;;;;4837247;29;20462;-76
2021/07/15 06:54:37;;;;;;;2.53;2.33;;;20.30;99.90;;;;;;4851943;29;20994;-77
2021/07/15 06:57:02;;;;;;;2.50;2.30;;;20.30;99.90;;;;;;4818804;29;21148;-77
2021/07/15 06:59:28;;;;;;;2.53;2.30;;;20.30;99.90;;;;;;4832096;29;20497;-76
2021/07/15 07:01:54;;;;;;;2.40;2.20;;;20.30;99.90;;;;;;4821726;29;20406;-77
2021/07/15 07:04:19;;;;;;;2.50;2.30;;;20.40;99.90;;;;;;4851550;29;20442;-77
2021/07/15 07:06:45;;;;;;;2.20;2.10;;;20.50;99.90;;;;;;4842016;29;20432;-76
2021/07/15 07:09:11;;;;;;;2.30;2.13;;;20.60;99.90;;;;;;4822017;29;20424;-77
2021/07/15 07:11:36;;;;;;;2.50;2.30;;;20.70;99.90;;;;;;4852605;29;20466;-77
2021/07/15 07:14:02;;;;;;;2.70;2.33;;;20.70;99.90;;;;;;4837176;29;20975;-77
2021/07/15 07:16:28;;;;;;;2.38;2.17;;;20.60;99.90;;;;;;4836159;29;20422;-77
2021/07/15 07:18:53;;;;;;;2.05;1.95;;;20.70;99.90;;;;;;4851035;29;20961;-77
2021/07/15 07:21:19;;;;;;;2.07;1.97;;;20.70;99.90;;;;;;4835105;29;20464;-77
2021/07/15 07:23:45;;;;;;;2.60;2.40;;;20.90;99.90;;;;;;4836111;29;20430;-77
2021/07/15 07:26:11;;;;;;;2.70;2.50;;;21.00;99.90;;;;;;4852248;29;20446;-76
2021/07/15 07:28:36;;;;;;;2.38;2.22;;;21.00;99.90;;;;;;4853534;29;20941;-77
2021/07/15 07:31:02;;;;;;;2.60;2.40;;;21.10;99.90;;;;;;4851294;29;20432;-77
2021/07/15 07:33:28;;;;;;;2.20;2.07;;;21.20;99.90;;;;;;4810457;29;20424;-76
2021/07/15 07:35:53;;;;;;;2.17;2.00;;;21.30;99.90;;;;;;4819028;29;20415;-76
2021/07/15 07:38:19;;;;;;;2.30;2.20;;;21.30;99.90;;;;;;4833519;29;20486;-77
2021/07/15 07:40:45;;;;;;;4.97;2.50;;;21.40;99.90;;;;;;4844497;29;20439;-77
2021/07/15 07:43:10;;;;;;;2.60;2.40;;;21.40;99.90;;;;;;4852955;29;20422;-76
2021/07/15 07:45:36;;;;;;;2.47;2.28;;;21.50;99.90;;;;;;4857294;29;20406;-76
2021/07/15 07:48:02;;;;;;;2.20;2.00;;;21.40;99.90;;;;;;4819556;29;20463;-76
2021/07/15 07:50:27;;;;;;;2.30;2.15;;;21.40;99.90;;;;;;4836391;29;20422;-77
2021/07/15 07:52:55;;;;;;;2.40;2.20;;;21.50;99.90;;;;;;4852529;29;20506;-77
2021/07/15 07:55:20;;;;;;;2.03;1.90;;;21.60;99.90;;;;;;4852825;29;20875;-76
2021/07/15 07:57:46;;;;;;;2.40;2.20;;;21.60;99.90;;;;;;4852667;29;20417;-77
2021/07/15 08:00:14;;;;;;;1.83;1.70;;;21.70;99.90;;;;;;4837431;29;20944;-77
2021/07/15 08:02:41;;;;;;;2.47;2.28;;;21.70;99.90;;;;;;4832019;29;20489;-77
2021/07/15 08:05:08;;;;;;;2.08;1.98;;;21.90;99.90;;;;;;4811826;29;20425;-77
2021/07/15 08:07:34;;;;;;;1.95;1.85;;;22.00;99.90;;;;;;4858259;29;20412;-77
2021/07/15 08:10:01;;;;;;;1.90;1.80;;;22.10;99.90;;;;;;4835665;29;20410;-77
2021/07/15 08:12:26;;;;;;;2.30;2.10;;;22.30;99.90;;;;;;4851479;29;20418;-77
2021/07/15 08:14:52;;;;;;;2.15;2.00;;;22.30;99.90;;;;;;4852448;29;20421;-77
2021/07/15 08:17:17;;;;;;;1.80;1.70;;;22.40;99.90;;;;;;4850557;29;20420;-77
2021/07/15 08:19:43;;;;;;;1.80;1.70;;;22.40;99.90;;;;;;4851179;29;20462;-76
2021/07/15 08:22:09;;;;;;;2.03;1.92;;;22.50;99.90;;;;;;4837074;29;20920;-77
2021/07/15 08:24:34;;;;;;;1.97;1.87;;;22.50;99.90;;;;;;4851509;29;20775;-77
2021/07/15 08:27:00;;;;;;;1.83;1.73;;;22.50;99.90;;;;;;4850050;29;20433;-77
2021/07/15 08:29:26;;;;;;;2.05;1.85;;;22.50;99.90;;;;;;4822564;29;20444;-77
2021/07/15 08:31:51;;;;;;;1.97;1.87;;;22.50;99.90;;;;;;4840494;29;20812;-76
2021/07/15 08:34:17;;;;;;;1.83;1.73;;;22.60;99.90;;;;;;4855843;29;20485;-77
2021/07/15 08:36:43;;;;;;;2.15;1.70;;;22.80;99.90;;;;;;4839254;29;20410;-77
2021/07/15 08:39:09;;;;;;;1.80;1.70;;;23.00;99.90;;;;;;4821611;29;20476;-76
2021/07/15 08:41:36;;;;;;;1.67;1.58;;;23.20;99.90;;;;;;4855079;29;20429;-77
2021/07/15 08:44:03;;;;;;;1.67;1.58;;;23.40;99.90;;;;;;4833882;29;20421;-77
2021/07/15 08:46:29;;;;;;;1.77;1.67;;;23.50;99.90;;;;;;4859899;29;20930;-76
2021/07/15 08:48:54;;;;;;;1.80;1.70;;;23.50;99.90;;;;;;4854598;29;20430;-77
2021/07/15 08:51:20;;;;;;;1.70;1.60;;;23.80;99.90;;;;;;4833765;29;20985;-78
2021/07/15 08:53:46;;;;;;;1.40;1.30;;;23.80;99.90;;;;;;4855352;29;20502;-77
2021/07/15 08:58:58;;;;;;;1.52;1.42;;;24.00;99.90;;;;;;4836663;29;20429;-77
2021/07/15 09:01:23;;;;;;;1.70;1.60;;;24.10;99.90;;;;;;4839156;29;20409;-77
2021/07/15 09:03:49;;;;;;;1.70;1.60;;;24.30;99.90;;;;;;4839713;29;20505;-77
2021/07/15 09:06:15;;;;;;;1.30;1.20;;;24.40;99.90;;;;;;4814918;29;20416;-77
2021/07/15 09:08:40;;;;;;;1.60;1.50;;;24.50;99.90;;;;;;4852869;29;20426;-77
2021/07/15 09:11:06;;;;;;;1.83;1.73;;;24.70;99.90;;;;;;4832921;29;20773;-78
2021/07/15 09:13:31;;;;;;;1.63;1.53;;;24.70;99.90;;;;;;4853518;29;20844;-77
2021/07/15 09:15:57;;;;;;;1.57;1.47;;;24.60;99.90;;;;;;4835866;29;20432;-77
2021/07/15 09:18:23;;;;;;;1.70;1.60;;;24.70;99.90;;;;;;4839638;29;20422;-77
2021/07/15 09:20:48;;;;;;;1.70;1.60;;;24.80;99.90;;;;;;4842780;29;20426;-77
2021/07/15 09:23:15;;;;;;;1.50;1.40;;;24.90;99.90;;;;;;4841960;29;20414;-78
2021/07/15 09:25:40;;;;;;;1.65;1.55;;;25.00;99.90;;;;;;4859796;29;20427;-77
2021/07/15 09:28:07;;;;;;;1.80;1.70;;;25.10;99.90;;;;;;4826810;29;20434;-78
2021/07/15 09:30:32;;;;;;;1.65;1.55;;;25.20;99.90;;;;;;4830549;29;20478;-78
2021/07/15 09:33:02;;;;;;;3.57;1.57;;;25.20;99.90;;;;;;4837426;29;20541;-77
2021/07/15 09:35:33;;;;;;;1.70;1.60;;;25.00;99.90;;;;;;4838967;29;20919;-77
2021/07/15 09:38:18;;;;;;;1.20;1.20;;;25.10;99.90;;;;;;4837095;29;20411;-77
2021/07/15 09:40:51;;;;;;;1.73;1.63;;;25.30;99.90;;;;;;4853886;29;20429;-78
2021/07/15 09:43:16;;;;;;;1.60;1.50;;;25.50;99.90;;;;;;4839010;29;20466;-77
2021/07/15 09:45:47;;;;;;;1.40;1.30;;;25.60;99.90;;;;;;4853310;29;20406;-77
2021/07/15 09:48:20;;;;;;;1.60;1.50;;;25.60;99.90;;;;;;4841675;29;20414;-77
2021/07/15 09:50:47;;;;;;;1.20;1.20;;;25.40;99.90;;;;;;4825165;29;20443;-78
2021/07/15 09:53:21;;;;;;;1.58;1.48;;;25.50;99.90;;;;;;4852590;29;20442;-77
2021/07/15 09:55:47;;;;;;;1.48;1.38;;;25.40;99.90;;;;;;4852830;29;20974;-77
2021/07/15 09:58:13;;;;;;;1.52;1.42;;;25.60;99.90;;;;;;4807948;29;20420;-78
2021/07/15 10:00:43;;;;;;;1.10;1.10;;;25.70;99.90;;;;;;4847915;29;20426;-78
2021/07/15 10:03:11;;;;;;;1.48;1.38;;;26.10;99.90;;;;;;4811391;29;20424;-77
2021/07/15 10:05:37;;;;;;;1.67;1.58;;;26.00;99.90;;;;;;4839365;29;20423;-77
2021/07/15 10:08:07;;;;;;;2.30;1.80;;;25.70;99.90;;;;;;4827940;29;20471;-77
2021/07/15 10:10:33;;;;;;;1.17;1.17;;;26.10;99.90;;;;;;4808885;29;20425;-77
2021/07/15 10:13:11;;;;;;;1.23;1.23;;;26.50;99.90;;;;;;4819486;29;20840;-78
2021/07/15 10:15:37;;;;;;;1.23;1.23;;;27.00;99.90;;;;;;4849192;29;20443;-78
2021/07/15 10:18:03;;;;;;;1.57;1.47;;;26.90;99.90;;;;;;4836032;29;20416;-77
2021/07/15 10:20:28;;;;;;;1.70;1.60;;;26.80;99.90;;;;;;4819388;29;20443;-78
2021/07/15 10:22:54;;;;;;;1.60;1.50;;;26.80;99.90;;;;;;4835798;29;20412;-77
2021/07/15 10:25:20;;;;;;;1.70;1.60;;;26.80;99.90;;;;;;4845864;29;20423;-78
2021/07/15 10:27:46;;;;;;;1.67;1.57;;;27.10;99.90;;;;;;4828998;29;20414;-77
2021/07/15 10:30:12;;;;;;;1.33;1.33;;;27.40;99.90;;;;;;4825810;29;20432;-78
2021/07/15 10:32:38;;;;;;;1.48;1.38;;;27.30;99.90;;;;;;4822140;29;20416;-78
2021/07/15 10:35:05;;;;;;;1.30;1.20;;;27.50;99.90;;;;;;4838621;29;20406;-77
2021/07/15 10:37:37;;;;;;;1.40;1.30;;;27.50;99.90;;;;;;4835309;29;20410;-78
2021/07/15 10:40:03;;;;;;;1.45;1.35;;;27.60;99.90;;;;;;4825843;29;20410;-78
2021/07/15 10:42:29;;;;;;;1.40;1.38;;;27.60;99.90;;;;;;4837612;29;20990;-78
2021/07/15 10:44:55;;;;;;;1.60;1.50;;;27.40;99.90;;;;;;4837761;29;20398;-78
2021/07/15 10:47:20;;;;;;;1.50;1.40;;;27.50;99.90;;;;;;4815268;29;20406;-77
2021/07/15 10:49:46;;;;;;;1.30;1.30;;;27.70;99.90;;;;;;4837227;29;20490;-78
2021/07/15 10:52:12;;;;;;;1.40;1.30;;;27.70;99.90;;;;;;4807409;29;20439;-78
2021/07/15 10:54:38;;;;;;;1.45;1.35;;;28.30;99.90;;;;;;4842458;29;20930;-77
2021/07/15 10:57:04;;;;;;;1.60;1.50;;;29.00;99.90;;;;;;4815290;29;20423;-78
2021/07/15 10:59:31;;;;;;;1.50;1.40;;;29.50;99.90;;;;;;4837342;29;20740;-79
2021/07/15 11:01:59;;;;;;;1.60;1.50;;;29.10;99.90;;;;;;4814187;29;20474;-78
2021/07/15 11:04:38;;;;;;;2.05;1.48;;;29.50;99.90;;;;;;4817261;29;20425;-78
2021/07/15 11:07:22;;;;;;;1.80;1.70;;;29.60;99.90;;;;;;4851549;29;20469;-78
2021/07/15 11:09:48;;;;;;;1.88;1.77;;;30.10;99.90;;;;;;4852880;29;20463;-77
2021/07/15 11:12:37;;;;;;;1.73;1.63;;;30.30;99.90;;;;;;4854089;29;20410;-78
2021/07/15 11:15:08;;;;;;;1.77;1.67;;;30.50;99.90;;;;;;4849260;29;20470;-78
2021/07/15 11:17:54;;;;;;;2.00;1.83;;;30.50;99.90;;;;;;4836619;29;20399;-78
2021/07/15 11:20:28;;;;;;;1.83;1.73;;;30.40;99.90;;;;;;4855670;29;21183;-79
2021/07/15 11:22:55;;;;;;;2.10;2.00;;;30.50;99.90;;;;;;4828717;29;21137;-78
2021/07/15 11:25:50;;;;;;;1.70;1.60;;;30.70;99.90;;;;;;4819522;29;20487;-79
2021/07/15 11:28:23;;;;;;;1.88;1.77;;;30.40;99.90;;;;;;4854027;29;20434;-79
2021/07/15 11:30:56;;;;;;;2.13;2.00;;;30.30;99.90;;;;;;4833956;29;20414;-80
2021/07/15 11:33:21;;;;;;;2.40;2.20;;;30.60;99.90;;;;;;4814161;29;20424;-79
2021/07/15 11:36:04;;;;;;;2.10;1.70;;;31.20;99.90;;;;;;4827925;29;20420;-79
2021/07/15 11:38:33;;;;;;;2.33;2.13;;;31.60;99.90;;;;;;4851911;29;20420;-78
2021/07/15 11:41:06;;;;;;;2.25;2.08;;;31.90;99.90;;;;;;4827975;29;20483;-79
2021/07/15 11:43:48;;;;;;;2.63;2.35;;;32.50;99.90;;;;;;4783544;29;20455;-79
2021/07/15 11:46:18;;;;;;;5.22;2.90;;;32.10;99.90;;;;;;4852646;29;20422;-78
2021/07/15 11:48:51;;;;;;;2.83;2.63;;;32.20;99.90;;;;;;4853857;29;20470;-79
2021/07/15 11:51:29;;;;;;;2.55;2.35;;;32.70;99.90;;;;;;4852148;29;20428;-80
2021/07/15 11:54:23;;;;;;;2.25;2.13;;;33.10;99.90;;;;;;4851926;29;20475;-79
2021/07/15 11:57:00;;;;;;;2.40;2.20;;;32.80;99.90;;;;;;4835539;29;20414;-78
2021/07/15 11:59:31;;;;;;;2.15;2.05;;;32.50;99.90;;;;;;4836127;29;20410;-79
2021/07/15 12:02:19;;;;;;;3.43;2.07;;;32.30;99.90;;;;;;4834120;29;20855;-79
2021/07/15 12:05:12;;;;;;;2.03;1.80;;;32.50;99.90;;;;;;4824025;29;20476;-79
2021/07/15 12:07:44;;;;;;;1.67;1.58;;;32.50;99.90;;;;;;4851500;29;20452;-79
2021/07/15 12:10:12;;;;;;;1.65;1.55;;;32.30;99.90;;;;;;4833159;29;20412;-80
2021/07/15 12:12:39;;;;;;;1.80;1.70;;;32.80;99.90;;;;;;4849651;29;20429;-79
2021/07/15 12:15:10;;;;;;;2.60;2.10;;;33.10;99.90;;;;;;4835516;29;20418;-79
2021/07/15 12:17:35;;;;;;;1.88;1.77;;;32.70;99.90;;;;;;4819643;29;20759;-79
2021/07/15 12:20:01;;;;;;;2.17;2.07;;;33.10;99.90;;;;;;4850011;29;20414;-79
2021/07/15 12:22:27;;;;;;;2.23;2.03;;;33.50;99.90;;;;;;4838885;29;20428;-79
2021/07/15 12:25:14;;;;;;;2.42;2.30;;;33.30;99.90;;;;;;4853245;29;20401;-79
2021/07/15 12:27:43;;;;;;;2.67;2.47;;;33.20;99.90;;;;;;4829139;29;20436;-79
2021/07/15 12:30:10;;;;;;;2.17;2.08;;;33.30;99.90;;;;;;4832235;29;20427;-80
2021/07/15 12:32:35;;;;;;;2.00;1.90;;;33.70;99.90;;;;;;4835572;29;20462;-79
2021/07/15 12:35:10;;;;;;;5.10;2.47;;;34.20;99.90;;;;;;4836534;29;20414;-79
2021/07/15 12:37:35;;;;;;;5.53;2.40;;;33.40;99.90;;;;;;4823561;29;21102;-79
2021/07/15 12:40:01;;;;;;;2.30;2.10;;;33.30;99.90;;;;;;4825272;29;20422;-80
2021/07/15 12:42:27;;;;;;;2.42;2.10;;;32.90;99.90;;;;;;4837528;29;20418;-78
2021/07/15 12:44:52;;;;;;;2.43;2.23;;;33.20;99.90;;;;;;4843462;29;20433;-79
2021/07/15 12:47:18;;;;;;;2.47;2.27;;;33.40;99.90;;;;;;4818063;29;20858;-79
2021/07/15 12:49:44;;;;;;;2.20;2.10;;;33.90;99.90;;;;;;4837842;29;20541;-78
2021/07/15 12:52:09;;;;;;;2.80;2.50;;;33.70;99.50;;;;;;4845836;29;20417;-79
2021/07/15 12:54:38;;;;;;;2.97;2.70;;;34.00;99.90;;;;;;4837991;29;20850;-79